createdAt,value
2024-05-09T00:00:55.483Z,7.77
2024-05-09T00:03:29.839Z,8.20
2024-05-09T00:06:00.615Z,7.13
2024-05-09T00:08:32.240Z,7.53
2024-05-09T00:11:03.637Z,7.00
2024-05-09T00:13:35.132Z,7.50
2024-05-09T00:16:06.333Z,8.07
2024-05-09T00:18:40.237Z,6.93
2024-05-09T00:21:13.347Z,8.37
2024-05-09T00:23:45.002Z,8.13
2024-05-09T00:26:20.780Z,8.70
2024-05-09T00:28:51.904Z,9.60
2024-05-09T00:31:23.449Z,9.17
2024-05-09T00:33:57.942Z,10.03
2024-05-09T00:36:28.992Z,10.00
2024-05-09T00:39:00.129Z,10.90
2024-05-09T00:41:31.262Z,11.10
2024-05-09T00:44:03.399Z,11.03
2024-05-09T00:46:37.656Z,11.50
2024-05-09T00:49:12.856Z,10.80
2024-05-09T00:51:45.736Z,12.70
2024-05-09T00:54:16.742Z,12.13
2024-05-09T00:56:47.805Z,13.67
2024-05-09T00:59:19.704Z,12.87
2024-05-09T01:01:51.318Z,13.60
2024-05-09T01:04:26.037Z,14.13
2024-05-09T01:06:57.365Z,13.03
2024-05-09T01:09:29.649Z,13.23
2024-05-09T01:12:00.925Z,12.80
2024-05-09T01:14:32.172Z,13.10
2024-05-09T01:17:03.370Z,13.03
2024-05-09T01:19:39.189Z,12.37
2024-05-09T01:22:10.609Z,13.00
2024-05-09T01:24:44.789Z,12.90
2024-05-09T01:27:15.990Z,11.83
2024-05-09T01:29:47.469Z,13.23
2024-05-09T01:32:18.561Z,12.93
2024-05-09T01:34:49.862Z,12.70
2024-05-09T01:37:21.076Z,13.23
2024-05-09T01:39:55.422Z,14.20
2024-05-09T01:42:26.474Z,12.83
2024-05-09T01:44:57.442Z,13.13
2024-05-09T01:47:30.905Z,12.90
2024-05-09T01:50:03.265Z,12.30
2024-05-09T01:52:39.056Z,12.80
2024-05-09T01:55:13.600Z,13.13
2024-05-09T01:57:44.688Z,12.30
2024-05-09T02:00:26.233Z,13.13
2024-05-09T02:03:06.115Z,12.20
2024-05-09T02:05:37.531Z,11.73
2024-05-09T02:08:09.604Z,12.33
2024-05-09T02:10:44.871Z,12.50
2024-05-09T02:13:16.741Z,13.10
2024-05-09T02:15:52.618Z,13.17
2024-05-09T02:18:25.242Z,12.97
2024-05-09T02:20:58.790Z,13.43
2024-05-09T02:23:30.715Z,12.77
2024-05-09T02:26:04.856Z,13.47
2024-05-09T02:28:35.637Z,14.43
2024-05-09T02:31:06.675Z,13.27
2024-05-09T02:33:38.383Z,14.07
2024-05-09T02:36:12.764Z,16.93
2024-05-09T02:38:43.782Z,16.43
2024-05-09T02:41:15.392Z,16.37
2024-05-09T02:43:46.647Z,16.13
2024-05-09T02:46:15.293Z,15.70
2024-05-09T02:48:46.775Z,15.20
2024-05-09T02:51:15.396Z,15.37
2024-05-09T02:53:46.596Z,15.10
2024-05-09T02:56:22.689Z,14.90
2024-05-09T02:58:51.322Z,13.93
2024-05-09T03:01:22.369Z,13.73
2024-05-09T03:03:52.370Z,13.93
2024-05-09T03:06:24.071Z,14.80
2024-05-09T03:08:52.159Z,12.43
2024-05-09T03:11:29.569Z,13.17
2024-05-09T03:13:59.790Z,14.73
2024-05-09T03:16:31.855Z,14.20
2024-05-09T03:19:00.150Z,13.93
2024-05-09T03:21:33.409Z,13.73
2024-05-09T03:24:03.363Z,14.73
2024-05-09T03:26:37.128Z,15.17
2024-05-09T03:29:05.952Z,15.70
2024-05-09T03:31:37.719Z,17.53
2024-05-09T03:34:06.147Z,17.33
2024-05-09T03:36:37.684Z,16.13
2024-05-09T03:39:09.954Z,16.30
2024-05-09T03:41:43.868Z,16.93
2024-05-09T03:44:15.030Z,15.33
2024-05-09T03:46:46.604Z,15.70
2024-05-09T03:49:15.273Z,14.77
2024-05-09T03:51:46.973Z,17.03
2024-05-09T03:54:15.979Z,17.43
2024-05-09T03:56:50.350Z,17.47
2024-05-09T03:59:18.585Z,17.53
2024-05-09T04:01:50.308Z,17.93
2024-05-09T04:04:18.628Z,16.90
2024-05-09T04:06:49.770Z,17.17
2024-05-09T04:09:17.936Z,18.37
2024-05-09T04:11:54.942Z,18.40
2024-05-09T04:14:23.879Z,17.87
2024-05-09T04:16:55.542Z,17.40
2024-05-09T04:19:23.909Z,17.63
2024-05-09T04:21:55.241Z,17.40
2024-05-09T04:24:23.455Z,16.83
2024-05-09T04:26:57.393Z,16.43
2024-05-09T04:29:25.931Z,19.73
2024-05-09T04:31:57.217Z,21.73
2024-05-09T04:34:32.450Z,17.57
2024-05-09T04:37:04.152Z,15.73
2024-05-09T04:39:32.239Z,20.20
2024-05-09T04:42:06.373Z,15.53
2024-05-09T04:44:37.944Z,14.83
2024-05-09T04:47:10.558Z,16.87
2024-05-09T04:49:38.985Z,17.80
2024-05-09T04:52:10.460Z,19.13
2024-05-09T04:54:38.632Z,19.63
2024-05-09T04:57:12.415Z,18.17
2024-05-09T04:59:40.862Z,18.30
2024-05-09T05:02:12.485Z,17.93
2024-05-09T05:04:40.636Z,16.77
2024-05-09T05:07:11.733Z,18.00
2024-05-09T05:09:40.129Z,19.83
2024-05-09T05:12:26.537Z,19.87
2024-05-09T05:14:57.702Z,18.17
2024-05-09T05:17:26.249Z,20.53
2024-05-09T05:19:58.001Z,17.47
2024-05-09T05:22:27.065Z,17.63
2024-05-09T05:24:58.051Z,16.93
2024-05-09T05:27:31.343Z,18.43
2024-05-09T05:30:02.795Z,19.00
2024-05-09T05:32:31.282Z,22.30
2024-05-09T05:35:02.467Z,20.43
2024-05-09T05:37:32.649Z,19.90
2024-05-09T05:40:09.353Z,19.00
2024-05-09T05:42:43.213Z,19.80
2024-05-09T05:45:13.851Z,19.50
2024-05-09T05:47:42.703Z,18.10
2024-05-09T05:50:23.807Z,18.73
2024-05-09T05:52:56.395Z,19.23
2024-05-09T05:55:27.899Z,20.03
2024-05-09T05:58:04.019Z,18.97
2024-05-09T06:00:39.650Z,17.93
2024-05-09T06:03:10.523Z,18.57
2024-05-09T06:05:44.193Z,20.30
2024-05-09T06:08:15.836Z,18.97
2024-05-09T06:10:44.988Z,19.37
2024-05-09T06:13:21.029Z,18.67
2024-05-09T06:15:49.301Z,17.43
2024-05-09T06:18:24.804Z,16.47
2024-05-09T06:20:53.362Z,17.77
2024-05-09T06:23:24.437Z,15.67
2024-05-09T06:25:52.994Z,15.83
2024-05-09T06:28:26.981Z,17.97
2024-05-09T06:30:55.105Z,17.90
2024-05-09T06:33:27.562Z,17.03
2024-05-09T06:35:59.683Z,15.50
2024-05-09T06:38:33.550Z,15.20
2024-05-09T06:41:04.917Z,13.83
2024-05-09T06:43:36.249Z,12.60
2024-05-09T06:46:40.601Z,12.87
2024-05-09T06:49:15.920Z,9.60
2024-05-09T06:51:46.976Z,9.93
2024-05-09T06:54:28.748Z,8.97
2024-05-09T06:57:04.390Z,8.03
2024-05-09T06:59:35.442Z,6.03
2024-05-09T07:02:08.002Z,4.40
2024-05-09T07:04:40.183Z,3.43
2024-05-09T07:07:13.612Z,3.37
2024-05-09T07:09:41.986Z,2.70
2024-05-09T07:12:13.688Z,2.47
2024-05-09T07:14:47.274Z,2.60
2024-05-09T07:17:20.830Z,3.70
2024-05-09T07:19:50.683Z,2.40
2024-05-09T07:22:23.135Z,3.30
2024-05-09T07:24:53.428Z,2.87
2024-05-09T07:27:28.059Z,3.03
2024-05-09T07:29:59.433Z,5.23
2024-05-09T07:32:30.383Z,2.87
2024-05-09T07:35:02.404Z,2.87
2024-05-09T07:37:35.124Z,2.90
2024-05-09T07:40:21.256Z,3.30
2024-05-09T07:42:58.756Z,3.60
2024-05-09T07:45:47.714Z,3.53
2024-05-09T07:52:38.770Z,3.93
2024-05-09T07:53:51.956Z,3.43
2024-05-09T07:56:26.063Z,3.43
2024-05-09T07:58:56.040Z,3.40
2024-05-09T08:01:58.586Z,2.50
2024-05-09T08:04:31.974Z,2.00
2024-05-09T08:10:00.652Z,1.67
2024-05-09T08:13:00.079Z,2.00
2024-05-09T08:15:40.755Z,1.70
2024-05-09T08:18:24.210Z,1.83
2024-05-09T08:20:53.261Z,2.33
2024-05-09T08:23:24.808Z,2.30
2024-05-09T08:25:53.293Z,1.83
2024-05-09T08:28:25.105Z,2.30
2024-05-09T08:30:53.733Z,6.37
2024-05-09T08:33:27.824Z,8.70
2024-05-09T08:35:57.731Z,8.83
2024-05-09T08:38:28.990Z,6.70
2024-05-09T08:40:58.043Z,5.80
2024-05-09T08:43:32.764Z,5.40
2024-05-09T08:46:08.001Z,4.40
2024-05-09T08:48:44.579Z,3.70
2024-05-09T08:51:14.855Z,3.50
2024-05-09T08:53:46.353Z,4.23
2024-05-09T08:56:16.983Z,3.77
2024-05-09T08:58:48.958Z,3.67
2024-05-09T09:01:19.538Z,4.50
2024-05-09T09:03:55.396Z,4.13
2024-05-09T09:06:27.403Z,4.33
2024-05-09T09:09:00.336Z,4.73
2024-05-09T09:11:28.955Z,4.87
2024-05-09T09:14:00.114Z,5.40
2024-05-09T09:16:35.555Z,5.57
2024-05-09T09:19:09.729Z,5.90
2024-05-09T09:21:39.306Z,5.73
2024-05-09T09:24:16.719Z,6.03
2024-05-09T09:26:50.470Z,6.37
2024-05-09T09:29:24.237Z,6.00
2024-05-09T09:31:59.127Z,5.70
2024-05-09T09:34:36.925Z,4.90
2024-05-09T09:37:09.321Z,5.77
2024-05-09T09:39:49.064Z,5.30
2024-05-09T09:42:18.955Z,6.10
2024-05-09T09:45:01.934Z,8.70
2024-05-09T09:47:40.197Z,12.93
2024-05-09T09:50:20.476Z,6.50
2024-05-09T09:52:53.235Z,6.47
2024-05-09T09:55:26.356Z,6.13
2024-05-09T09:57:56.839Z,6.30
2024-05-09T10:00:33.420Z,5.57
2024-05-09T10:03:02.892Z,5.40
2024-05-09T10:05:45.333Z,6.70
2024-05-09T10:08:18.021Z,4.37
2024-05-09T10:10:50.546Z,5.33
2024-05-09T10:13:20.269Z,4.53
2024-05-09T10:15:57.296Z,3.00
2024-05-09T10:18:36.748Z,2.93
2024-05-09T10:21:22.410Z,2.67
2024-05-09T10:24:00.652Z,5.07
2024-05-09T10:26:36.079Z,6.17
2024-05-09T10:29:26.888Z,2.10
2024-05-09T10:32:05.643Z,1.30
2024-05-09T10:34:34.791Z,1.60
2024-05-09T10:37:08.835Z,1.00
2024-05-09T10:40:02.092Z,2.00
2024-05-09T10:42:36.450Z,1.57
2024-05-09T10:45:58.323Z,2.50
2024-05-09T10:48:42.732Z,2.10
2024-05-09T10:51:17.888Z,1.90
2024-05-09T10:53:52.914Z,2.07
2024-05-09T10:56:21.150Z,1.73
2024-05-09T10:58:55.897Z,1.50
2024-05-09T11:01:26.782Z,1.20
2024-05-09T11:04:00.336Z,1.00
2024-05-09T11:06:30.310Z,2.30
2024-05-09T11:09:06.457Z,1.20
2024-05-09T11:11:34.772Z,1.30
2024-05-09T11:14:15.128Z,1.00
2024-05-09T11:16:43.436Z,1.30
2024-05-09T11:19:18.876Z,1.57
2024-05-09T11:21:51.755Z,1.40
2024-05-09T11:24:26.159Z,1.30
2024-05-09T11:26:54.214Z,1.10
2024-05-09T11:29:25.356Z,1.00
2024-05-09T11:31:53.807Z,1.43
2024-05-09T11:34:25.072Z,2.10
2024-05-09T11:36:53.782Z,1.10
2024-05-09T11:39:27.812Z,1.67
2024-05-09T11:41:56.260Z,1.50
2024-05-09T11:44:27.985Z,1.63
2024-05-09T11:46:56.355Z,1.03
2024-05-09T11:49:27.878Z,1.07
2024-05-09T11:51:56.616Z,1.70
2024-05-09T11:54:30.763Z,0.90
2024-05-09T11:56:58.794Z,2.43
2024-05-09T11:59:29.925Z,1.40
2024-05-09T12:01:58.473Z,0.90
2024-05-09T12:04:32.268Z,1.27
2024-05-09T12:07:00.934Z,1.37
2024-05-09T12:09:37.958Z,1.13
2024-05-09T12:12:09.125Z,1.83
2024-05-09T12:14:40.277Z,1.30
2024-05-09T12:17:09.391Z,1.10
2024-05-09T12:19:41.140Z,1.13
2024-05-09T12:22:09.470Z,1.00
2024-05-09T12:24:43.665Z,1.27
2024-05-09T12:27:12.683Z,1.10
2024-05-09T12:29:44.622Z,2.90
2024-05-09T12:32:13.282Z,1.00
2024-05-09T12:34:44.766Z,0.83
2024-05-09T12:37:14.119Z,2.57
2024-05-09T12:39:51.176Z,1.60
2024-05-09T12:42:27.028Z,2.33
2024-05-09T12:45:01.869Z,5.10
2024-05-09T12:47:30.354Z,2.10
2024-05-09T12:50:03.800Z,1.07
2024-05-09T12:52:35.105Z,1.97
2024-05-09T12:55:11.388Z,1.10
2024-05-09T12:57:39.862Z,1.03
2024-05-09T13:00:20.698Z,1.00
2024-05-09T13:02:56.359Z,0.80
2024-05-09T13:05:28.492Z,0.80
2024-05-09T13:07:59.566Z,1.20
2024-05-09T13:10:33.867Z,0.90
2024-05-09T13:13:06.105Z,0.90
2024-05-09T13:15:37.972Z,1.33
2024-05-09T13:18:07.723Z,0.90
2024-05-09T13:20:41.991Z,1.00
2024-05-09T13:23:10.399Z,1.63
2024-05-09T13:25:44.202Z,1.20
2024-05-09T13:28:15.969Z,1.10
2024-05-09T13:30:47.514Z,1.10
2024-05-09T13:33:16.061Z,1.10
2024-05-09T13:35:50.524Z,1.63
2024-05-09T13:38:20.750Z,1.13
2024-05-09T13:40:54.837Z,1.17
2024-05-09T13:43:23.680Z,1.10
2024-05-09T13:45:55.978Z,1.20
2024-05-09T13:48:24.437Z,1.07
2024-05-09T13:50:55.973Z,1.03
2024-05-09T13:53:25.354Z,1.40
2024-05-09T13:55:59.536Z,1.30
2024-05-09T14:01:16.715Z,1.37
2024-05-09T14:03:45.488Z,1.33
2024-05-09T14:06:17.007Z,1.10
2024-05-09T14:08:45.286Z,1.27
2024-05-09T14:11:28.118Z,1.30
2024-05-09T14:13:56.603Z,1.30
2024-05-09T14:16:28.157Z,1.10
2024-05-09T14:18:56.748Z,1.10
2024-05-09T14:21:29.713Z,1.10
2024-05-09T14:23:57.960Z,1.07
2024-05-09T14:26:32.040Z,1.77
2024-05-09T14:29:20.592Z,1.60
2024-05-09T14:32:02.299Z,1.50
2024-05-09T14:34:37.699Z,1.40
2024-05-09T14:37:36.345Z,1.50
2024-05-09T14:40:14.699Z,1.77
2024-05-09T14:43:02.698Z,2.30
2024-05-09T14:45:46.466Z,1.70
2024-05-09T14:48:20.644Z,1.60
2024-05-09T14:50:55.130Z,1.13
2024-05-09T14:53:27.353Z,1.30
2024-05-09T14:55:58.675Z,2.43
2024-05-09T14:58:46.834Z,2.20
2024-05-09T15:01:15.359Z,1.80
2024-05-09T15:03:47.218Z,1.60
2024-05-09T15:06:22.468Z,1.30
2024-05-09T15:09:02.537Z,1.73
2024-05-09T15:11:30.612Z,1.60
2024-05-09T15:14:46.704Z,2.03
2024-05-09T15:17:17.980Z,2.33
2024-05-09T15:19:49.358Z,2.30
2024-05-09T15:22:18.531Z,2.43
2024-05-09T15:24:58.433Z,1.70
2024-05-09T15:27:27.008Z,1.87
2024-05-09T15:29:57.958Z,1.20
2024-05-09T15:32:29.990Z,1.27
2024-05-09T15:35:00.976Z,1.50
2024-05-09T15:37:29.235Z,2.00
2024-05-09T15:39:59.865Z,2.00
2024-05-09T15:42:28.272Z,2.23
2024-05-09T15:45:02.502Z,3.33
2024-05-09T15:47:35.004Z,1.73
2024-05-09T15:50:17.091Z,1.97
2024-05-09T15:52:48.999Z,2.40
2024-05-09T15:55:20.276Z,2.70
2024-05-09T15:57:49.042Z,2.97
2024-05-09T16:00:37.588Z,2.67
2024-05-09T16:03:16.190Z,1.70
2024-05-09T16:05:49.694Z,2.00
2024-05-09T16:08:18.400Z,1.93
2024-05-09T16:10:50.323Z,1.80
2024-05-09T16:13:19.967Z,1.10
2024-05-09T16:15:52.142Z,1.50
2024-05-09T16:18:23.455Z,1.57
2024-05-09T16:20:59.697Z,1.17
2024-05-09T16:23:29.094Z,2.60
2024-05-09T16:26:00.791Z,2.50
2024-05-09T16:28:29.345Z,2.53
2024-05-09T16:31:01.842Z,1.80
2024-05-09T16:33:34.100Z,2.50
2024-05-09T16:36:05.253Z,2.00
2024-05-09T16:38:34.110Z,3.77
2024-05-09T16:41:13.278Z,1.47
2024-05-09T16:43:41.784Z,1.83
2024-05-09T16:46:13.314Z,1.50
2024-05-09T16:48:46.021Z,1.20
2024-05-09T16:51:17.090Z,1.90
2024-05-09T16:53:46.770Z,1.30
2024-05-09T16:56:18.170Z,1.03
2024-05-09T16:58:46.571Z,1.00
2024-05-09T17:01:17.586Z,1.10
2024-05-09T17:03:49.668Z,2.20
2024-05-09T17:06:20.587Z,2.27
2024-05-09T17:08:49.060Z,1.30
2024-05-09T17:11:22.074Z,1.60
2024-05-09T17:13:53.076Z,1.30
2024-05-09T17:16:25.568Z,1.27
2024-05-09T17:18:59.434Z,2.30
2024-05-09T17:21:28.989Z,1.50
2024-05-09T17:23:59.994Z,1.83
2024-05-09T17:26:28.847Z,1.80
2024-05-09T17:28:59.862Z,1.60
2024-05-09T17:31:28.534Z,1.90
2024-05-09T17:34:02.912Z,1.87
2024-05-09T17:36:32.090Z,2.00
2024-05-09T17:39:03.091Z,1.90
2024-05-09T17:41:31.110Z,1.90
2024-05-09T17:44:02.154Z,2.23
2024-05-09T17:46:31.260Z,1.83
2024-05-09T17:49:05.322Z,1.80
2024-05-09T17:51:33.947Z,1.90
2024-05-09T17:54:05.333Z,2.20
2024-05-09T17:56:34.009Z,2.77
2024-05-09T17:59:07.739Z,1.97
2024-05-09T18:01:37.906Z,2.20
2024-05-09T18:04:12.606Z,4.43
2024-05-09T18:06:43.027Z,2.40
2024-05-09T18:09:14.068Z,3.03
2024-05-09T18:11:42.485Z,2.00
2024-05-09T18:14:15.683Z,1.70
2024-05-09T18:16:44.163Z,1.30
2024-05-09T18:19:20.079Z,1.80
2024-05-09T18:21:49.547Z,1.43
2024-05-09T18:24:28.192Z,1.90
2024-05-09T18:26:56.897Z,2.33
2024-05-09T18:29:28.688Z,1.70
2024-05-09T18:31:57.652Z,2.70
2024-05-09T18:34:31.573Z,2.13
2024-05-09T18:37:04.560Z,2.07
2024-05-09T18:39:36.614Z,2.00
2024-05-09T18:42:25.307Z,1.83
2024-05-09T18:44:59.355Z,1.53
2024-05-09T18:47:29.970Z,2.17
2024-05-09T18:50:03.834Z,1.70
2024-05-09T18:52:34.195Z,1.60
2024-05-09T18:55:06.963Z,2.67
2024-05-09T18:57:34.941Z,1.90
2024-05-09T19:00:07.150Z,2.23
2024-05-09T19:02:42.736Z,1.70
2024-05-09T19:05:17.589Z,2.20
2024-05-09T19:07:51.970Z,2.00
2024-05-09T19:10:28.795Z,1.93
2024-05-09T19:13:09.157Z,1.27
2024-05-09T19:15:46.632Z,1.30
2024-05-09T19:18:16.241Z,1.30
2024-05-09T19:20:55.277Z,1.80
2024-05-09T19:23:26.678Z,1.80
2024-05-09T19:25:58.178Z,2.57
2024-05-09T19:28:27.567Z,1.10
2024-05-09T19:30:59.079Z,1.37
2024-05-09T19:33:32.520Z,3.53
2024-05-09T19:36:08.421Z,1.10
2024-05-09T19:38:37.611Z,2.70
2024-05-09T19:41:08.795Z,3.70
2024-05-09T19:43:37.751Z,2.10
2024-05-09T19:46:09.450Z,1.63
2024-05-09T19:48:41.161Z,1.40
2024-05-09T19:51:15.305Z,1.00
2024-05-09T19:53:51.017Z,1.00
2024-05-09T19:56:19.458Z,1.70
2024-05-09T19:58:50.775Z,1.10
2024-05-09T20:01:19.602Z,1.80
2024-05-09T20:03:51.483Z,1.07
2024-05-09T20:06:26.674Z,1.80
2024-05-09T20:09:02.127Z,1.37
2024-05-09T20:11:33.295Z,1.43
2024-05-09T20:14:04.682Z,2.20
2024-05-09T20:16:33.537Z,2.90
2024-05-09T20:19:04.777Z,4.97
2024-05-09T20:21:36.351Z,3.00
2024-05-09T20:24:08.346Z,1.30
2024-05-09T20:26:40.286Z,1.30
2024-05-09T20:29:12.309Z,2.00
2024-05-09T20:31:44.722Z,2.30
2024-05-09T20:34:16.062Z,1.87
2024-05-09T20:36:47.456Z,1.27
2024-05-09T20:39:18.680Z,1.80
2024-05-09T20:41:47.533Z,1.53
2024-05-09T20:44:26.114Z,2.83
2024-05-09T20:46:54.657Z,1.30
2024-05-09T20:49:31.428Z,1.20
2024-05-09T20:52:04.868Z,1.57
2024-05-09T20:54:36.211Z,2.00
2024-05-09T20:57:06.849Z,2.37
2024-05-09T20:59:38.426Z,1.20
2024-05-09T21:02:06.435Z,0.97
2024-05-09T21:04:38.075Z,1.60
2024-05-09T21:07:09.133Z,1.73
2024-05-09T21:09:42.878Z,1.30
2024-05-09T21:12:10.953Z,3.10
2024-05-09T21:14:42.672Z,1.23
2024-05-09T21:17:10.963Z,1.60
2024-05-09T21:19:41.880Z,1.60
2024-05-09T21:22:13.047Z,1.30
2024-05-09T21:24:44.299Z,1.77
2024-05-09T21:27:15.379Z,1.10
2024-05-09T21:29:46.583Z,1.20
2024-05-09T21:32:15.705Z,1.00
2024-05-09T21:34:47.450Z,0.70
2024-05-09T21:37:18.555Z,0.80
2024-05-09T21:39:52.324Z,1.03
2024-05-09T21:42:21.022Z,1.47
2024-05-09T21:44:52.175Z,1.00
2024-05-09T21:47:20.935Z,0.87
2024-05-09T21:49:52.622Z,0.93
2024-05-09T21:52:23.572Z,1.00
2024-05-09T21:54:57.962Z,0.90
2024-05-09T21:57:26.406Z,0.90
2024-05-09T21:59:57.236Z,0.90
2024-05-09T22:02:25.681Z,0.90
2024-05-09T22:04:57.189Z,0.77
2024-05-09T22:07:28.564Z,0.80
2024-05-09T22:09:59.560Z,0.90
2024-05-09T22:12:27.676Z,0.80
2024-05-09T22:14:59.973Z,0.97
2024-05-09T22:17:28.466Z,0.80
2024-05-09T22:19:59.897Z,0.90
2024-05-09T22:22:33.463Z,1.17
2024-05-09T22:25:04.637Z,0.80
2024-05-09T22:27:33.115Z,0.80
2024-05-09T22:30:05.309Z,0.70
2024-05-09T22:32:35.028Z,0.80
2024-05-09T22:35:08.132Z,0.77
2024-05-09T22:37:39.450Z,0.77
2024-05-09T22:40:17.568Z,0.80
2024-05-09T22:42:54.824Z,0.80
2024-05-09T22:45:25.590Z,0.80
2024-05-09T22:47:55.375Z,1.53
2024-05-09T22:50:30.612Z,1.30
2024-05-09T22:53:04.259Z,1.30
2024-05-09T22:55:35.445Z,1.50
2024-05-09T22:58:04.116Z,1.20
2024-05-09T23:00:35.506Z,2.00
2024-05-09T23:03:04.332Z,1.80
2024-05-09T23:05:35.828Z,2.43
2024-05-09T23:08:07.856Z,2.83
2024-05-09T23:10:39.348Z,2.47
2024-05-09T23:13:08.388Z,2.30
2024-05-09T23:15:40.256Z,1.97
2024-05-09T23:18:10.695Z,1.83
2024-05-09T23:20:41.930Z,1.97
2024-05-09T23:23:13.098Z,2.10
2024-05-09T23:25:46.310Z,1.70
2024-05-09T23:28:14.322Z,1.93
2024-05-09T23:30:45.049Z,2.10
2024-05-09T23:33:14.603Z,1.70
2024-05-09T23:35:46.337Z,1.90
2024-05-09T23:38:18.419Z,2.17
2024-05-09T23:40:50.862Z,1.93
2024-05-09T23:43:20.200Z,2.33
2024-05-09T23:45:51.540Z,2.00
2024-05-09T23:48:20.182Z,2.00
2024-05-09T23:50:53.193Z,1.50
2024-05-09T23:53:25.117Z,1.20
2024-05-09T23:55:58.991Z,1.30
2024-05-09T23:58:28.536Z,1.37
